Country
Station

 

Weather  for  Big River Lake  -  United States    United States

  
-6 °C (21 °F)
    
 
 

Current METAR for Big River Lake is :

PALV 231850Z 35004KT 25SM -SN SKC M06/M06 A3080 RMK NOSPECI

 

This is a report for Big River Lake - United States.
 
The report was made 569 hours and 31 minutes ago, at 18:50 UTC .
The wind was blowing at a speed of 2.1 meters per second (4.6 miles per hour) from north (350°).
 
The temperature was -6 °C (21 °F), with a dew-point at -6 °C (21 °F).
The temperature felt like -9 °C (15 °F).
 
The atmospheric pressure was 1043 hPa (30.80 inHg).
The relative humidity was 100.0%.
 
The sky was clear.
 
The overall visibility was 40.2 kilometers (25.0 miles).
 
Currently light snow.

 
 
 
 

Country :   A   B   C   D   E   F   G   H   I   J   K   L   M   N   O   P   Q   R   S   T   U   V   W   Y   Z

 

Site Info  |  Disclaimer  |  Credits  |  Privacy
Contact us  |  Add to favorites
© 2013-2018 METARs - All rights reserved